createdAt,value
2019-03-22T00:01:43.446Z,17.23
2019-03-22T00:04:14.398Z,20.72
2019-03-22T00:06:45.428Z,18.40
2019-03-22T00:09:17.494Z,19.37
2019-03-22T00:14:41.238Z,17.77
2019-03-22T00:17:13.509Z,17.47
2019-03-22T00:19:44.378Z,18.87
2019-03-22T00:22:13.748Z,20.48
2019-03-22T00:24:48.625Z,18.33
2019-03-22T00:27:19.354Z,18.87
2019-03-22T00:29:49.016Z,19.33
2019-03-22T00:32:20.268Z,19.97
2019-03-22T00:34:51.397Z,19.07
2019-03-22T00:37:24.508Z,18.80
2019-03-22T00:39:55.651Z,19.47
2019-03-22T00:42:24.517Z,19.35
2019-03-22T00:44:53.413Z,17.87
2019-03-22T00:47:22.300Z,17.70
2019-03-22T00:49:51.192Z,20.87
2019-03-22T00:52:20.083Z,16.75
2019-03-22T00:54:48.976Z,17.73
2019-03-22T00:57:27.959Z,17.00
2019-03-22T00:59:48.398Z,16.20
2019-03-22T01:02:17.286Z,21.20
2019-03-22T01:04:46.530Z,17.23
2019-03-22T01:07:16.114Z,21.42
2019-03-22T01:09:45.625Z,20.90
2019-03-22T01:12:14.881Z,15.83
2019-03-22T01:14:44.494Z,17.03
2019-03-22T01:17:13.497Z,17.57
2019-03-22T01:19:42.388Z,19.73
2019-03-22T01:22:12.097Z,16.55
2019-03-22T01:24:40.994Z,17.23
2019-03-22T01:27:10.087Z,15.85
2019-03-22T01:29:38.976Z,18.53
2019-03-22T01:32:08.994Z,15.53
2019-03-22T01:34:38.091Z,16.97
2019-03-22T01:37:06.982Z,16.23
2019-03-22T01:39:35.872Z,15.30
2019-03-22T01:42:04.866Z,16.83
2019-03-22T01:44:33.761Z,19.23
2019-03-22T01:47:02.655Z,17.33
2019-03-22T01:49:31.543Z,14.60
2019-03-22T01:52:00.429Z,14.90
2019-03-22T01:54:29.322Z,14.87
2019-03-22T01:56:58.213Z,16.20
2019-03-22T01:59:27.104Z,15.73
2019-03-22T02:01:55.994Z,19.77
2019-03-22T02:04:25.004Z,14.43
2019-03-22T02:06:53.881Z,14.90
2019-03-22T02:09:22.913Z,12.87
2019-03-22T02:11:51.766Z,16.97
2019-03-22T02:14:20.657Z,14.45
2019-03-22T02:16:49.545Z,14.60
2019-03-22T02:19:18.341Z,15.20
2019-03-22T02:21:47.329Z,15.00
2019-03-22T02:24:16.223Z,15.23
2019-03-22T02:26:45.115Z,15.53
2019-03-22T02:29:13.903Z,18.73
2019-03-22T02:31:42.791Z,14.17
2019-03-22T02:34:11.685Z,18.92
2019-03-22T02:36:40.580Z,14.53
2019-03-22T02:39:10.658Z,15.32
2019-03-22T02:41:39.585Z,15.57
2019-03-22T02:44:09.425Z,19.90
2019-03-22T02:46:38.296Z,17.90
2019-03-22T02:49:07.999Z,15.80
2019-03-22T02:51:36.889Z,17.37
2019-03-22T02:54:05.885Z,20.10
2019-03-22T02:56:34.683Z,17.00
2019-03-22T02:59:03.564Z,18.13
2019-03-22T03:01:32.763Z,17.60
2019-03-22T03:04:01.754Z,19.17
2019-03-22T03:06:30.751Z,22.97
2019-03-22T03:08:59.640Z,19.80
2019-03-22T03:11:28.531Z,19.17
2019-03-22T03:13:57.440Z,18.03
2019-03-22T03:16:26.314Z,20.23
2019-03-22T03:18:55.208Z,17.97
2019-03-22T03:21:24.094Z,21.03
2019-03-22T03:23:52.989Z,20.27
2019-03-22T03:26:21.985Z,20.45
2019-03-22T03:28:50.871Z,22.57
2019-03-22T03:31:19.765Z,20.15
2019-03-22T03:33:48.661Z,19.27
2019-03-22T03:36:17.549Z,23.47
2019-03-22T03:38:46.442Z,21.23
2019-03-22T03:41:15.336Z,20.35
2019-03-22T03:43:44.324Z,25.40
2019-03-22T03:46:13.218Z,19.50
2019-03-22T03:48:42.222Z,24.20
2019-03-22T03:51:11.405Z,21.53
2019-03-22T03:53:40.403Z,17.67
2019-03-22T03:56:09.703Z,17.65
2019-03-22T03:58:51.776Z,19.77
2019-03-22T04:01:09.538Z,17.40
2019-03-22T04:03:38.425Z,19.63
2019-03-22T04:06:08.030Z,16.48
2019-03-22T04:08:36.922Z,15.40
2019-03-22T04:11:05.816Z,15.23
2019-03-22T04:13:36.242Z,18.33
2019-03-22T04:16:05.133Z,22.33
2019-03-22T04:18:34.022Z,19.07
2019-03-22T04:21:02.916Z,16.73
2019-03-22T04:23:31.800Z,15.07
2019-03-22T04:26:00.695Z,16.57
2019-03-22T04:28:29.582Z,15.33
2019-03-22T04:31:00.019Z,19.93
2019-03-22T04:33:28.902Z,15.73
2019-03-22T04:35:57.793Z,16.77
2019-03-22T04:38:26.682Z,15.68
2019-03-22T04:40:55.576Z,16.07
2019-03-22T04:43:24.467Z,14.67
2019-03-22T04:45:54.965Z,16.13
2019-03-22T04:48:26.753Z,18.80
2019-03-22T04:50:58.516Z,15.77
2019-03-22T04:53:30.347Z,15.70
2019-03-22T04:56:04.862Z,17.00
2019-03-22T04:58:36.782Z,12.13
2019-03-22T05:01:07.678Z,15.37
2019-03-22T05:03:41.186Z,11.67
2019-03-22T05:06:12.196Z,14.17
2019-03-22T05:08:43.652Z,14.93
2019-03-22T05:11:15.425Z,14.15
2019-03-22T05:13:50.114Z,16.67
2019-03-22T05:16:23.118Z,17.48
2019-03-22T05:18:55.485Z,15.47
2019-03-22T05:21:28.600Z,15.57
2019-03-22T05:24:04.046Z,13.90
2019-03-22T05:26:37.534Z,14.17
2019-03-22T05:29:09.290Z,12.70
2019-03-22T05:31:50.039Z,13.80
2019-03-22T05:34:21.723Z,12.10
2019-03-22T05:36:51.538Z,15.63
2019-03-22T05:39:24.413Z,17.55
2019-03-22T05:42:01.498Z,15.87
2019-03-22T05:44:32.277Z,14.85
2019-03-22T05:47:04.601Z,14.78
2019-03-22T05:49:38.414Z,13.13
2019-03-22T05:52:11.192Z,17.13
2019-03-22T05:54:56.776Z,15.13
2019-03-22T05:57:30.171Z,14.83
2019-03-22T06:00:02.751Z,13.17
2019-03-22T06:02:33.589Z,12.43
2019-03-22T06:05:06.633Z,14.63
2019-03-22T06:07:37.608Z,15.27
2019-03-22T06:10:08.862Z,14.40
2019-03-22T06:12:40.515Z,18.30
2019-03-22T06:15:11.815Z,15.15
2019-03-22T06:17:51.189Z,18.13
2019-03-22T06:20:13.018Z,17.20
2019-03-22T06:22:43.965Z,18.23
2019-03-22T06:25:13.981Z,17.82
2019-03-22T06:27:55.358Z,15.37
2019-03-22T06:30:27.754Z,17.05
2019-03-22T06:32:58.479Z,12.85
2019-03-22T06:35:31.607Z,16.80
2019-03-22T06:38:03.485Z,11.10
2019-03-22T06:40:34.762Z,13.38
2019-03-22T06:43:06.844Z,13.03
2019-03-22T06:45:40.855Z,11.37
2019-03-22T06:48:12.215Z,14.05
2019-03-22T06:50:44.459Z,13.77
2019-03-22T06:53:14.164Z,10.05
2019-03-22T06:55:45.418Z,11.70
2019-03-22T06:58:14.362Z,14.53
2019-03-22T07:00:43.247Z,16.40
2019-03-22T07:03:12.039Z,10.20
2019-03-22T07:05:41.965Z,15.03
2019-03-22T07:08:11.147Z,16.12
2019-03-22T07:10:40.142Z,16.77
2019-03-22T07:13:09.852Z,19.62
2019-03-22T07:15:38.845Z,19.37
2019-03-22T07:18:08.866Z,18.57
2019-03-22T07:20:37.757Z,29.63
2019-03-22T07:23:06.646Z,20.67
2019-03-22T07:25:35.539Z,15.23
2019-03-22T07:28:04.430Z,18.27
2019-03-22T07:30:33.321Z,22.47
2019-03-22T07:33:02.213Z,25.13
2019-03-22T07:35:31.101Z,19.00
2019-03-22T07:37:59.993Z,21.30
2019-03-22T07:40:28.885Z,19.53
2019-03-22T07:42:57.739Z,18.83
2019-03-22T07:45:26.666Z,16.97
2019-03-22T07:47:55.967Z,18.07
2019-03-22T07:50:24.830Z,13.30
2019-03-22T07:52:53.697Z,22.93
2019-03-22T07:55:22.436Z,15.30
2019-03-22T07:57:51.332Z,13.87
2019-03-22T08:00:30.289Z,12.82
2019-03-22T08:02:50.749Z,11.23
2019-03-22T08:05:19.641Z,10.58
2019-03-22T08:07:48.533Z,9.27
2019-03-22T08:10:17.524Z,11.40
2019-03-22T08:12:46.420Z,11.73
2019-03-22T08:15:18.173Z,11.73
2019-03-22T08:17:46.970Z,9.37
2019-03-22T08:20:15.874Z,9.08
2019-03-22T08:22:44.845Z,9.60
2019-03-22T08:25:13.739Z,10.60
2019-03-22T08:27:42.645Z,10.30
2019-03-22T08:30:12.364Z,12.50
2019-03-22T08:32:41.232Z,10.90
2019-03-22T08:35:10.846Z,14.03
2019-03-22T08:37:51.745Z,9.50
2019-03-22T08:40:10.667Z,11.80
2019-03-22T08:42:39.565Z,13.07
2019-03-22T08:45:11.360Z,14.47
2019-03-22T08:47:40.532Z,14.67
2019-03-22T08:50:10.490Z,16.10
2019-03-22T08:52:39.425Z,14.43
2019-03-22T08:55:08.444Z,9.70
2019-03-22T08:57:37.311Z,12.23
2019-03-22T09:00:11.586Z,16.30
2019-03-22T09:02:40.422Z,12.57
2019-03-22T09:05:11.346Z,11.18
2019-03-22T09:07:40.281Z,15.57
2019-03-22T09:10:12.235Z,12.57
2019-03-22T09:12:41.105Z,16.03
2019-03-22T09:15:11.531Z,19.95
2019-03-22T09:17:40.438Z,16.10
2019-03-22T09:20:11.044Z,18.67
2019-03-22T09:22:39.976Z,17.93
2019-03-22T09:25:09.475Z,22.48
2019-03-22T09:27:38.382Z,16.73
2019-03-22T09:30:10.057Z,13.57
2019-03-22T09:32:38.901Z,14.73
2019-03-22T09:35:07.929Z,14.80
2019-03-22T09:37:36.873Z,18.43
2019-03-22T09:40:08.597Z,16.23
2019-03-22T09:42:37.626Z,18.03
2019-03-22T09:45:08.451Z,16.57
2019-03-22T09:47:37.258Z,16.30
2019-03-22T09:50:08.709Z,18.70
2019-03-22T09:52:37.633Z,21.70
2019-03-22T09:55:13.145Z,12.57
2019-03-22T09:57:37.667Z,14.17
2019-03-22T10:00:09.650Z,18.13
2019-03-22T10:02:38.541Z,24.20
2019-03-22T10:05:07.793Z,23.40
2019-03-22T10:07:36.679Z,24.93
2019-03-22T10:10:06.899Z,13.70
2019-03-22T10:12:35.827Z,14.57
2019-03-22T10:15:06.914Z,15.57
2019-03-22T10:17:35.824Z,14.80
2019-03-22T10:20:06.326Z,19.73
2019-03-22T10:22:35.256Z,16.07
2019-03-22T10:25:06.116Z,19.00
2019-03-22T10:27:35.092Z,20.40
2019-03-22T10:30:07.472Z,15.77
2019-03-22T10:32:36.474Z,19.80
2019-03-22T10:35:06.459Z,17.47
2019-03-22T10:37:35.373Z,19.27
2019-03-22T10:40:05.651Z,19.63
2019-03-22T10:42:34.612Z,19.77
2019-03-22T10:45:04.126Z,16.27
2019-03-22T10:47:33.087Z,17.03
2019-03-22T10:50:02.003Z,19.10
2019-03-22T10:52:30.846Z,19.40
2019-03-22T10:55:17.314Z,18.87
2019-03-22T10:57:30.371Z,16.23
2019-03-22T10:59:59.260Z,17.17
2019-03-22T11:02:28.255Z,20.30
2019-03-22T11:04:57.146Z,15.33
2019-03-22T11:07:26.040Z,15.70
2019-03-22T11:09:55.131Z,13.80
2019-03-22T11:12:24.029Z,18.07
2019-03-22T11:14:52.917Z,21.83
2019-03-22T11:17:21.916Z,14.23
2019-03-22T11:19:50.802Z,18.47
2019-03-22T11:22:19.795Z,20.80
2019-03-22T11:24:48.687Z,17.57
2019-03-22T11:27:17.579Z,21.63
2019-03-22T11:29:46.475Z,15.93
2019-03-22T11:32:15.360Z,18.30
2019-03-22T11:34:44.252Z,19.55
2019-03-22T11:37:13.141Z,24.27
2019-03-22T11:39:42.038Z,21.43
2019-03-22T11:42:11.844Z,19.75
2019-03-22T11:44:40.737Z,13.90
2019-03-22T11:47:09.830Z,18.20
2019-03-22T11:49:40.155Z,17.27
2019-03-22T11:52:09.355Z,17.30
2019-03-22T11:54:39.986Z,17.03
2019-03-22T11:57:09.910Z,14.83
2019-03-22T11:59:38.797Z,18.83
2019-03-22T12:02:08.205Z,17.57
2019-03-22T12:04:37.095Z,14.67
2019-03-22T12:07:06.006Z,22.13
2019-03-22T12:09:34.876Z,12.07
2019-03-22T12:12:03.966Z,16.20
2019-03-22T12:14:32.858Z,13.03
2019-03-22T12:17:01.850Z,14.37
2019-03-22T12:19:30.743Z,14.63
2019-03-22T12:21:59.637Z,14.10
2019-03-22T12:24:28.526Z,11.67
2019-03-22T12:26:57.518Z,9.60
2019-03-22T12:29:26.417Z,11.53
2019-03-22T12:31:55.310Z,12.43
2019-03-22T12:34:24.192Z,12.53
2019-03-22T12:36:53.082Z,13.03
2019-03-22T12:39:21.972Z,12.13
2019-03-22T12:41:50.863Z,12.37
2019-03-22T12:44:19.858Z,10.80
2019-03-22T12:46:49.287Z,12.33
2019-03-22T12:49:18.254Z,11.87
2019-03-22T12:51:47.145Z,13.13
2019-03-22T12:54:16.036Z,10.30
2019-03-22T12:56:45.030Z,15.03
2019-03-22T12:59:16.992Z,8.53
2019-03-22T13:01:45.885Z,12.97
2019-03-22T13:04:14.687Z,12.53
2019-03-22T13:06:43.668Z,13.47
2019-03-22T13:09:12.562Z,17.17
2019-03-22T13:11:41.454Z,13.27
2019-03-22T13:14:11.472Z,15.23
2019-03-22T13:16:40.362Z,16.73
2019-03-22T13:19:10.178Z,15.10
2019-03-22T13:21:39.065Z,16.23
2019-03-22T13:24:08.500Z,14.43
2019-03-22T13:26:37.360Z,15.80
2019-03-22T13:29:06.251Z,18.20
2019-03-22T13:31:35.144Z,21.27
2019-03-22T13:34:04.137Z,22.07
2019-03-22T13:36:33.129Z,18.07
2019-03-22T13:39:02.017Z,22.27
2019-03-22T13:41:31.154Z,21.63
2019-03-22T13:44:00.109Z,27.27
2019-03-22T13:46:29.035Z,22.40
2019-03-22T13:48:57.998Z,23.10
2019-03-22T13:51:26.883Z,27.37
2019-03-22T13:53:55.773Z,25.00
2019-03-22T13:56:24.664Z,23.00
2019-03-22T13:58:53.555Z,23.85
2019-03-22T14:01:22.569Z,22.47
2019-03-22T14:03:52.976Z,29.90
2019-03-22T14:06:21.974Z,30.70
2019-03-22T14:08:50.865Z,32.70
2019-03-22T14:11:19.754Z,26.60
2019-03-22T14:13:48.649Z,28.17
2019-03-22T14:16:17.535Z,24.30
2019-03-22T14:18:46.427Z,26.02
2019-03-22T14:21:15.522Z,21.43
2019-03-22T14:23:44.416Z,19.30
2019-03-22T14:26:13.309Z,21.07
2019-03-22T14:28:42.198Z,23.18
2019-03-22T14:31:11.295Z,20.72
2019-03-22T14:33:40.188Z,20.12
2019-03-22T14:36:09.585Z,16.10
2019-03-22T14:38:38.477Z,16.37
2019-03-22T14:41:09.420Z,13.66
2019-03-22T14:43:38.305Z,19.07
2019-03-22T14:46:07.201Z,12.80
2019-03-22T14:48:36.093Z,14.50
2019-03-22T14:51:04.979Z,14.15
2019-03-22T14:53:33.873Z,11.88
2019-03-22T14:56:02.766Z,13.32
2019-03-22T14:58:31.652Z,13.88
2019-03-22T15:01:00.545Z,14.15
2019-03-22T15:03:29.439Z,14.25
2019-03-22T15:05:58.326Z,11.80
2019-03-22T15:08:27.391Z,15.80
2019-03-22T15:10:58.059Z,12.23
2019-03-22T15:13:31.195Z,12.03
2019-03-22T15:16:17.427Z,15.13
2019-03-22T15:18:47.871Z,13.83
2019-03-22T15:21:23.994Z,14.97
2019-03-22T15:24:10.789Z,11.38
2019-03-22T15:26:57.555Z,10.05
2019-03-22T15:29:44.265Z,11.73
2019-03-22T15:32:30.871Z,11.47
2019-03-22T15:35:07.487Z,9.13
2019-03-22T15:37:54.261Z,7.73
2019-03-22T15:40:23.160Z,7.87
2019-03-22T15:42:52.032Z,7.83
2019-03-22T15:45:20.942Z,9.65
2019-03-22T15:47:49.815Z,6.58
2019-03-22T15:50:19.213Z,6.27
2019-03-22T15:52:48.117Z,5.40
2019-03-22T15:55:17.002Z,8.83
2019-03-22T15:57:45.893Z,5.53
2019-03-22T16:00:17.688Z,6.97
2019-03-22T16:02:46.689Z,6.10
2019-03-22T16:05:16.077Z,6.73
2019-03-22T16:07:45.072Z,8.55
2019-03-22T16:10:14.342Z,6.53
2019-03-22T16:12:43.335Z,5.28
2019-03-22T16:15:14.891Z,4.62
2019-03-22T16:17:43.892Z,8.23
2019-03-22T16:20:15.057Z,5.44
2019-03-22T16:22:43.916Z,2.47
2019-03-22T16:25:13.869Z,4.14
2019-03-22T16:27:42.723Z,5.58
2019-03-22T16:30:15.893Z,3.56
2019-03-22T16:32:44.706Z,3.83
2019-03-22T16:35:14.106Z,3.42
2019-03-22T16:37:42.999Z,7.80
2019-03-22T16:40:12.794Z,5.53
2019-03-22T16:42:41.600Z,4.70
2019-03-22T16:45:12.035Z,4.46
2019-03-22T16:47:43.952Z,2.05
2019-03-22T16:50:22.180Z,3.22
2019-03-22T16:52:50.988Z,4.60
2019-03-22T16:55:21.421Z,3.90
2019-03-22T16:57:50.634Z,4.00
2019-03-22T17:00:22.602Z,3.13
2019-03-22T17:02:52.010Z,4.78
2019-03-22T17:05:20.815Z,2.52
2019-03-22T17:07:49.663Z,3.62
2019-03-22T17:10:18.655Z,1.77
2019-03-22T17:12:47.544Z,3.85
2019-03-22T17:15:17.976Z,1.93
2019-03-22T17:17:46.865Z,4.28
2019-03-22T17:20:15.778Z,2.90
2019-03-22T17:22:44.650Z,3.05
2019-03-22T17:25:13.643Z,4.80
2019-03-22T17:27:43.355Z,2.47
2019-03-22T17:30:14.604Z,2.32
2019-03-22T17:32:43.491Z,2.57
2019-03-22T17:35:12.688Z,2.70
2019-03-22T17:37:41.579Z,3.42
2019-03-22T17:40:11.453Z,3.38
2019-03-22T17:42:40.282Z,4.15
2019-03-22T17:45:12.390Z,9.20
2019-03-22T17:47:42.879Z,4.85
2019-03-22T17:50:14.039Z,6.40
2019-03-22T17:52:42.912Z,5.10
2019-03-22T17:55:12.614Z,7.23
2019-03-22T17:57:41.729Z,6.60
2019-03-22T18:00:20.598Z,5.05
2019-03-22T18:02:49.451Z,5.47
2019-03-22T18:05:18.427Z,4.10
2019-03-22T18:07:49.373Z,5.37
2019-03-22T18:10:19.997Z,3.80
2019-03-22T18:12:48.888Z,5.53
2019-03-22T18:15:17.782Z,4.93
2019-03-22T18:17:46.674Z,5.77
2019-03-22T18:20:19.679Z,7.60
2019-03-22T18:22:48.664Z,5.53
2019-03-22T18:25:17.647Z,6.10
2019-03-22T18:27:46.537Z,3.77
2019-03-22T18:30:16.675Z,7.37
2019-03-22T18:32:45.548Z,6.00
2019-03-22T18:35:15.392Z,6.25
2019-03-22T18:37:45.384Z,6.03
2019-03-22T18:40:15.986Z,13.22
2019-03-22T18:42:44.801Z,8.53
2019-03-22T18:45:14.409Z,7.53
2019-03-22T18:47:43.704Z,6.63
2019-03-22T18:50:13.955Z,5.53
2019-03-22T18:52:42.924Z,6.97
2019-03-22T18:55:13.764Z,6.08
2019-03-22T18:57:42.653Z,6.70
2019-03-22T19:00:14.020Z,3.73
2019-03-22T19:02:42.896Z,5.17
2019-03-22T19:05:13.217Z,5.83
2019-03-22T19:07:42.111Z,2.80
2019-03-22T19:10:17.376Z,5.23
2019-03-22T19:12:46.239Z,7.47
2019-03-22T19:15:16.091Z,4.87
2019-03-22T19:17:44.946Z,7.90
2019-03-22T19:20:15.146Z,7.53
2019-03-22T19:22:43.955Z,7.20
2019-03-22T19:25:14.595Z,12.47
2019-03-22T19:27:43.621Z,6.57
2019-03-22T19:30:17.380Z,7.33
2019-03-22T19:32:46.284Z,5.97
2019-03-22T19:35:15.281Z,7.33
2019-03-22T19:37:45.702Z,5.50
2019-03-22T19:40:15.698Z,8.13
2019-03-22T19:42:44.608Z,6.00
2019-03-22T19:45:16.833Z,6.30
2019-03-22T19:47:45.872Z,5.30
2019-03-22T19:50:17.893Z,6.37
2019-03-22T19:52:46.831Z,5.67
2019-03-22T19:55:17.360Z,5.37
2019-03-22T19:57:46.250Z,5.77
2019-03-22T20:00:22.091Z,7.40
2019-03-22T20:02:50.997Z,4.17
2019-03-22T20:05:28.284Z,5.50
2019-03-22T20:07:57.282Z,6.47
2019-03-22T20:10:26.283Z,4.27
2019-03-22T20:12:55.265Z,4.33
2019-03-22T20:15:24.154Z,4.27
2019-03-22T20:17:52.961Z,5.03
2019-03-22T20:20:21.838Z,6.10
2019-03-22T20:22:50.730Z,6.60
2019-03-22T20:25:20.846Z,7.23
2019-03-22T20:27:49.737Z,8.73
2019-03-22T20:30:19.127Z,5.50
2019-03-22T20:32:48.135Z,7.70
2019-03-22T20:35:18.931Z,6.77
2019-03-22T20:37:47.760Z,5.80
2019-03-22T20:40:20.203Z,4.70
2019-03-22T20:42:49.027Z,4.53
2019-03-22T20:45:23.921Z,5.25
2019-03-22T20:47:48.650Z,5.47
2019-03-22T20:50:17.643Z,6.03
2019-03-22T20:52:46.536Z,7.83
2019-03-22T20:55:15.529Z,7.60
2019-03-22T20:57:44.420Z,7.63
2019-03-22T21:00:15.477Z,6.72
2019-03-22T21:02:44.355Z,5.73
2019-03-22T21:05:26.107Z,4.53
2019-03-22T21:07:45.826Z,5.23
2019-03-22T21:10:15.425Z,8.30
2019-03-22T21:12:45.140Z,5.87
2019-03-22T21:15:23.982Z,9.00
2019-03-22T21:17:45.071Z,6.50
2019-03-22T21:20:15.395Z,7.87
2019-03-22T21:22:44.286Z,8.00
2019-03-22T21:25:13.526Z,7.93
2019-03-22T21:27:42.379Z,6.40
2019-03-22T21:30:13.685Z,7.03
2019-03-22T21:32:45.626Z,7.07
2019-03-22T21:35:21.946Z,8.20
2019-03-22T21:37:44.192Z,8.03
2019-03-22T21:40:14.048Z,6.70
2019-03-22T21:42:42.997Z,5.50
2019-03-22T21:45:12.299Z,9.78
2019-03-22T21:47:41.299Z,7.17
2019-03-22T21:50:11.261Z,7.37
2019-03-22T21:52:40.312Z,7.63
2019-03-22T21:55:09.928Z,8.45
2019-03-22T21:57:38.792Z,7.00
2019-03-22T22:00:15.688Z,7.13
2019-03-22T22:02:44.570Z,11.60
2019-03-22T22:05:13.458Z,8.70
2019-03-22T22:07:42.452Z,7.30
2019-03-22T22:10:12.686Z,6.85
2019-03-22T22:12:41.695Z,6.60
2019-03-22T22:15:11.985Z,9.50
2019-03-22T22:17:42.003Z,5.93
2019-03-22T22:20:11.823Z,5.60
2019-03-22T22:22:41.335Z,6.63
2019-03-22T22:25:11.551Z,5.87
2019-03-22T22:27:42.481Z,5.30
2019-03-22T22:30:12.943Z,9.13
2019-03-22T22:32:41.900Z,7.27
2019-03-22T22:35:12.746Z,6.05
2019-03-22T22:37:41.944Z,7.37
2019-03-22T22:40:12.793Z,6.78
2019-03-22T22:42:41.785Z,4.77
2019-03-22T22:45:11.978Z,6.20
2019-03-22T22:47:41.159Z,6.37
2019-03-22T22:50:11.879Z,8.38
2019-03-22T22:52:42.162Z,9.87
2019-03-22T22:55:11.865Z,4.90
2019-03-22T22:57:40.791Z,4.83
2019-03-22T23:00:16.099Z,4.73
2019-03-22T23:02:45.500Z,5.67
2019-03-22T23:05:14.596Z,5.43
2019-03-22T23:07:43.493Z,4.83
2019-03-22T23:10:12.936Z,6.60
2019-03-22T23:12:42.109Z,6.93
2019-03-22T23:15:11.993Z,7.85
2019-03-22T23:17:41.918Z,4.97
2019-03-22T23:20:11.844Z,8.53
2019-03-22T23:22:41.032Z,9.30
2019-03-22T23:25:11.770Z,7.23
2019-03-22T23:27:40.662Z,9.60
2019-03-22T23:30:14.113Z,8.28
2019-03-22T23:32:43.070Z,7.97
2019-03-22T23:35:13.269Z,7.53
2019-03-22T23:37:42.166Z,15.23
2019-03-22T23:40:11.672Z,9.17
2019-03-22T23:42:40.559Z,7.20
2019-03-22T23:45:10.986Z,8.20
2019-03-22T23:47:40.188Z,7.27
2019-03-22T23:50:09.966Z,8.30
2019-03-22T23:52:38.890Z,9.80
2019-03-22T23:55:08.090Z,6.07
2019-03-22T23:57:36.978Z,7.53
